createdAt,value
2023-01-04T00:00:36.517Z,2.20
2023-01-04T00:03:05.622Z,2.50
2023-01-04T00:05:33.974Z,1.93
2023-01-04T00:08:05.349Z,2.53
2023-01-04T00:10:33.951Z,1.83
2023-01-04T00:13:02.528Z,1.93
2023-01-04T00:15:32.396Z,2.23
2023-01-04T00:18:00.698Z,2.37
2023-01-04T00:20:29.195Z,1.60
2023-01-04T00:22:57.690Z,1.90
2023-01-04T00:25:26.467Z,2.13
2023-01-04T00:27:54.997Z,2.27
2023-01-04T00:30:24.014Z,1.93
2023-01-04T00:32:54.064Z,2.60
2023-01-04T00:35:44.572Z,2.60
2023-01-04T00:38:11.067Z,2.07
2023-01-04T00:40:39.691Z,2.00
2023-01-04T00:43:08.065Z,1.97
2023-01-04T00:45:36.378Z,2.00
2023-01-04T00:48:06.670Z,2.20
2023-01-04T00:50:35.324Z,2.23
2023-01-04T00:53:04.091Z,2.00
2023-01-04T00:55:32.712Z,2.97
2023-01-04T00:58:01.198Z,1.97
2023-01-04T01:00:29.588Z,2.87
2023-01-04T01:02:58.662Z,2.33
2023-01-04T01:05:32.121Z,2.00
2023-01-04T01:08:20.879Z,2.20
2023-01-04T01:10:49.529Z,2.03
2023-01-04T01:13:18.755Z,1.60
2023-01-04T01:15:47.489Z,1.93
2023-01-04T01:18:16.111Z,1.90
2023-01-04T01:20:46.938Z,2.67
2023-01-04T01:23:16.357Z,2.50
2023-01-04T01:25:44.869Z,2.87
2023-01-04T01:28:15.748Z,2.30
2023-01-04T01:30:44.837Z,2.20
2023-01-04T01:33:13.237Z,2.33
2023-01-04T01:35:41.686Z,1.93
2023-01-04T01:38:11.515Z,2.10
2023-01-04T01:40:42.957Z,1.70
2023-01-04T01:43:18.929Z,2.07
2023-01-04T01:45:50.654Z,2.60
2023-01-04T01:48:24.354Z,2.67
2023-01-04T01:50:57.845Z,2.30
2023-01-04T01:53:30.094Z,2.13
2023-01-04T01:55:59.869Z,2.80
2023-01-04T01:58:35.820Z,2.90
2023-01-04T02:01:04.686Z,2.30
2023-01-04T02:03:36.572Z,2.40
2023-01-04T02:06:08.629Z,1.83
2023-01-04T02:08:39.358Z,2.23
2023-01-04T02:11:08.020Z,2.47
2023-01-04T02:13:56.759Z,2.17
2023-01-04T02:16:33.583Z,2.50
2023-01-04T02:19:15.773Z,1.90
2023-01-04T02:21:59.894Z,2.00
2023-01-04T02:24:47.759Z,2.50
2023-01-04T02:27:37.391Z,2.00
2023-01-04T02:30:34.315Z,1.80
2023-01-04T02:33:16.782Z,1.80
2023-01-04T02:35:54.717Z,1.80
2023-01-04T02:38:27.165Z,2.10
2023-01-04T02:41:07.497Z,1.50
2023-01-04T02:44:03.578Z,1.80
2023-01-04T02:46:36.663Z,1.30
2023-01-04T02:49:24.559Z,1.47
2023-01-04T02:51:53.549Z,1.33
2023-01-04T02:54:27.370Z,1.40
2023-01-04T02:57:23.704Z,1.20
2023-01-04T03:00:11.549Z,1.60
2023-01-04T03:03:14.065Z,1.20
2023-01-04T03:06:15.084Z,1.17
2023-01-04T03:08:55.605Z,0.80
2023-01-04T03:11:46.934Z,1.43
2023-01-04T03:14:32.112Z,0.87
2023-01-04T03:17:06.281Z,0.93
2023-01-04T03:19:55.169Z,1.73
2023-01-04T03:22:48.010Z,1.07
2023-01-04T03:25:37.295Z,0.93
2023-01-04T03:28:26.859Z,0.93
2023-01-04T03:31:20.802Z,0.80
2023-01-04T03:34:07.713Z,0.70
2023-01-04T03:36:47.239Z,0.70
2023-01-04T03:39:42.670Z,0.60
2023-01-04T03:42:36.741Z,0.80
2023-01-04T03:45:32.594Z,0.80
2023-01-04T03:48:26.944Z,0.80
2023-01-04T03:51:04.774Z,0.70
2023-01-04T03:53:37.038Z,0.70
2023-01-04T03:56:10.559Z,0.80
2023-01-04T03:58:39.629Z,0.57
2023-01-04T04:01:08.968Z,0.83
2023-01-04T04:03:54.709Z,1.10
2023-01-04T04:06:40.966Z,0.73
2023-01-04T04:09:09.749Z,0.70
2023-01-04T04:11:39.632Z,0.67
2023-01-04T04:14:08.252Z,0.70
2023-01-04T04:16:37.035Z,0.67
2023-01-04T04:19:08.730Z,0.57
2023-01-04T04:21:38.210Z,0.77
2023-01-04T04:24:07.879Z,0.70
2023-01-04T04:26:36.901Z,0.33
2023-01-04T04:29:06.827Z,0.43
2023-01-04T04:31:35.343Z,0.57
2023-01-04T04:34:04.246Z,0.70
2023-01-04T04:36:32.571Z,0.83
2023-01-04T04:39:00.871Z,1.00
2023-01-04T04:41:41.903Z,0.60
2023-01-04T04:44:13.837Z,1.37
2023-01-04T04:46:42.815Z,0.80
2023-01-04T04:49:12.044Z,0.80
2023-01-04T04:51:41.603Z,0.40
2023-01-04T04:54:11.636Z,0.93
2023-01-04T04:56:40.149Z,0.60
2023-01-04T04:59:08.663Z,0.93
2023-01-04T05:01:38.669Z,0.60
2023-01-04T05:04:07.556Z,0.53
2023-01-04T05:06:36.069Z,0.70
2023-01-04T05:09:07.955Z,0.80
2023-01-04T05:11:53.649Z,0.57
2023-01-04T05:14:24.581Z,0.80
2023-01-04T05:16:54.844Z,0.90
2023-01-04T05:19:23.507Z,0.80
2023-01-04T05:21:52.024Z,1.10
2023-01-04T05:24:20.432Z,0.80
2023-01-04T05:26:48.885Z,0.73
2023-01-04T05:29:31.219Z,1.00
2023-01-04T05:32:01.315Z,0.80
2023-01-04T05:34:30.015Z,1.20
2023-01-04T05:36:58.579Z,1.03
2023-01-04T05:39:27.217Z,0.70
2023-01-04T05:42:12.965Z,1.13
2023-01-04T05:44:41.218Z,1.20
2023-01-04T05:47:15.082Z,0.80
2023-01-04T05:49:44.218Z,0.90
2023-01-04T05:52:12.684Z,0.50
2023-01-04T05:54:41.507Z,0.97
2023-01-04T05:57:11.389Z,1.00
2023-01-04T05:59:42.047Z,1.13
2023-01-04T06:02:18.436Z,1.20
2023-01-04T06:04:51.548Z,0.80
2023-01-04T06:07:23.606Z,1.13
2023-01-04T06:09:52.233Z,1.20
2023-01-04T06:12:21.081Z,1.53
2023-01-04T06:14:49.703Z,1.23
2023-01-04T06:17:19.661Z,1.33
2023-01-04T06:19:48.391Z,1.07
2023-01-04T06:22:16.841Z,1.00
2023-01-04T06:24:45.425Z,1.07
2023-01-04T06:27:16.333Z,0.83
2023-01-04T06:29:46.922Z,0.83
2023-01-04T06:32:15.760Z,0.90
2023-01-04T06:34:48.692Z,0.80
2023-01-04T06:37:17.143Z,0.90
2023-01-04T06:39:45.844Z,1.00
2023-01-04T06:42:28.058Z,0.80
2023-01-04T06:44:56.667Z,1.00
2023-01-04T06:47:25.573Z,0.73
2023-01-04T06:49:55.475Z,1.10
2023-01-04T06:52:24.000Z,0.60
2023-01-04T06:54:52.586Z,0.97
2023-01-04T06:57:20.999Z,1.00
2023-01-04T06:59:49.603Z,0.77
2023-01-04T07:02:18.905Z,1.40
2023-01-04T07:04:48.095Z,0.80
2023-01-04T07:07:18.398Z,0.70
2023-01-04T07:09:47.383Z,0.67
2023-01-04T07:12:16.089Z,0.67
2023-01-04T07:14:44.849Z,0.80
2023-01-04T07:17:14.163Z,0.80
2023-01-04T07:19:42.596Z,0.83
2023-01-04T07:22:11.248Z,0.90
2023-01-04T07:24:41.732Z,0.87
2023-01-04T07:27:11.236Z,0.70
2023-01-04T07:29:43.941Z,1.03
2023-01-04T07:32:14.260Z,0.97
2023-01-04T07:34:43.406Z,0.80
2023-01-04T07:37:13.304Z,1.00
2023-01-04T07:39:43.983Z,2.87
2023-01-04T07:42:12.982Z,1.13
2023-01-04T07:44:41.861Z,0.80
2023-01-04T07:47:10.336Z,1.13
2023-01-04T07:49:38.725Z,0.80
2023-01-04T07:52:07.158Z,0.90
2023-01-04T07:54:35.916Z,0.90
2023-01-04T07:57:05.830Z,1.33
2023-01-04T07:59:34.551Z,1.00
2023-01-04T08:02:03.479Z,1.07
2023-01-04T08:04:35.106Z,0.70
2023-01-04T08:07:04.740Z,0.83
2023-01-04T08:09:33.985Z,1.07
2023-01-04T08:12:02.953Z,0.87
2023-01-04T08:14:33.169Z,1.10
2023-01-04T08:17:01.598Z,0.70
2023-01-04T08:19:30.079Z,1.10
2023-01-04T08:21:58.582Z,1.30
2023-01-04T08:24:27.580Z,1.00
2023-01-04T08:26:56.473Z,1.20
2023-01-04T08:29:28.175Z,1.03
2023-01-04T08:32:02.756Z,1.10
2023-01-04T08:34:32.579Z,1.10
2023-01-04T08:37:01.576Z,1.03
2023-01-04T08:39:35.518Z,1.20
2023-01-04T08:42:18.736Z,1.27
2023-01-04T08:44:55.576Z,0.73
2023-01-04T08:47:29.179Z,1.47
2023-01-04T08:49:58.292Z,1.50
2023-01-04T08:52:29.952Z,0.90
2023-01-04T08:54:59.194Z,0.83
2023-01-04T08:57:28.200Z,0.97
2023-01-04T08:59:57.612Z,1.13
2023-01-04T09:02:47.654Z,1.40
2023-01-04T09:05:22.401Z,1.03
2023-01-04T09:07:52.197Z,1.20
2023-01-04T09:10:21.707Z,1.27
2023-01-04T09:12:50.684Z,1.13
2023-01-04T09:15:19.422Z,1.53
2023-01-04T09:18:29.378Z,1.47
2023-01-04T09:20:39.701Z,1.23
2023-01-04T09:23:08.374Z,1.30
2023-01-04T09:25:39.829Z,2.43
2023-01-04T09:28:08.607Z,1.20
2023-01-04T09:30:37.283Z,1.20
2023-01-04T09:33:07.194Z,1.87
2023-01-04T09:35:36.354Z,0.97
2023-01-04T09:38:05.142Z,1.30
2023-01-04T09:40:41.904Z,0.80
2023-01-04T09:43:21.913Z,1.60
2023-01-04T09:45:57.589Z,1.00
2023-01-04T09:48:32.294Z,0.77
2023-01-04T09:51:05.221Z,0.83
2023-01-04T09:53:41.685Z,0.77
2023-01-04T09:56:17.754Z,1.17
2023-01-04T09:58:46.967Z,1.10
2023-01-04T10:01:20.592Z,1.30
2023-01-04T10:03:58.256Z,0.73
2023-01-04T10:06:27.277Z,1.10
2023-01-04T10:09:02.682Z,0.80
2023-01-04T10:11:45.797Z,0.90
2023-01-04T10:14:27.664Z,0.93
2023-01-04T10:17:14.651Z,1.30
2023-01-04T10:23:06.678Z,1.10
2023-01-04T10:25:43.309Z,1.07
2023-01-04T10:28:30.983Z,1.40
2023-01-04T10:31:38.571Z,1.03
2023-01-04T10:34:03.617Z,1.03
2023-01-04T10:36:34.117Z,1.30
2023-01-04T10:39:05.059Z,1.53
2023-01-04T10:41:38.540Z,1.53
2023-01-04T10:44:17.187Z,1.27
2023-01-04T10:46:53.382Z,1.50
2023-01-04T10:49:30.471Z,1.60
2023-01-04T10:52:07.337Z,1.63
2023-01-04T10:54:40.964Z,1.30
2023-01-04T10:57:15.502Z,1.40
2023-01-04T10:59:51.316Z,1.30
2023-01-04T11:02:27.628Z,1.67
2023-01-04T11:05:01.243Z,1.77
2023-01-04T11:07:40.497Z,1.40
2023-01-04T11:10:12.159Z,1.70
2023-01-04T11:12:41.236Z,1.60
2023-01-04T11:15:10.812Z,1.70
2023-01-04T11:17:39.923Z,1.60
2023-01-04T11:20:09.622Z,1.63
2023-01-04T11:22:44.064Z,1.30
2023-01-04T11:28:14.135Z,1.83
2023-01-04T11:30:51.243Z,1.40
2023-01-04T11:33:22.068Z,1.50
2023-01-04T11:35:53.771Z,1.83
2023-01-04T11:38:25.710Z,1.47
2023-01-04T11:41:02.805Z,1.10
2023-01-04T11:43:32.850Z,1.27
2023-01-04T11:46:04.640Z,1.87
2023-01-04T11:48:39.128Z,1.67
2023-01-04T11:51:17.672Z,1.37
2023-01-04T11:53:57.636Z,1.50
2023-01-04T11:56:29.442Z,1.30
2023-01-04T11:59:07.232Z,1.53
2023-01-04T12:01:37.766Z,1.63
2023-01-04T12:04:12.671Z,1.30
2023-01-04T12:06:47.275Z,1.37
2023-01-04T12:09:18.525Z,1.37
2023-01-04T12:11:51.027Z,1.60
2023-01-04T12:14:26.490Z,1.07
2023-01-04T12:17:04.331Z,1.50
2023-01-04T12:19:33.239Z,1.60
2023-01-04T12:22:04.598Z,1.50
2023-01-04T12:24:36.049Z,0.90
2023-01-04T12:27:04.737Z,1.10
2023-01-04T12:29:43.040Z,0.90
2023-01-04T12:32:41.441Z,1.00
2023-01-04T12:36:01.001Z,0.90
2023-01-04T12:38:58.771Z,0.80
2023-01-04T12:42:06.423Z,1.20
2023-01-04T12:45:12.956Z,0.87
2023-01-04T12:48:00.989Z,1.00
2023-01-04T12:50:32.243Z,0.83
2023-01-04T12:53:28.853Z,1.23
2023-01-04T12:55:55.135Z,0.60
2023-01-04T12:59:24.767Z,0.60
2023-01-04T13:01:32.805Z,0.73
2023-01-04T13:04:06.308Z,1.00
2023-01-04T13:06:43.994Z,0.80
2023-01-04T13:09:23.658Z,1.10
2023-01-04T13:12:09.516Z,0.80
2023-01-04T13:14:45.035Z,0.93
2023-01-04T13:17:24.381Z,0.70
2023-01-04T13:19:53.401Z,0.77
2023-01-04T13:22:29.571Z,0.70
2023-01-04T13:25:00.446Z,0.87
2023-01-04T13:27:29.676Z,0.70
2023-01-04T13:29:59.660Z,0.70
2023-01-04T13:32:29.814Z,0.70
2023-01-04T13:35:14.212Z,1.20
2023-01-04T13:37:45.989Z,0.93
2023-01-04T13:40:24.996Z,0.80
2023-01-04T13:43:08.208Z,1.00
2023-01-04T13:46:06.195Z,1.23
2023-01-04T13:48:38.867Z,0.83
2023-01-04T13:51:16.011Z,0.97
2023-01-04T13:53:52.570Z,1.00
2023-01-04T13:56:23.096Z,0.97
2023-01-04T13:58:51.879Z,1.10
2023-01-04T14:01:26.496Z,1.40
2023-01-04T14:03:57.266Z,1.33
2023-01-04T14:06:30.375Z,0.97
2023-01-04T14:09:06.399Z,1.60
2023-01-04T14:14:55.464Z,0.83
2023-01-04T14:17:32.092Z,1.30
2023-01-04T14:20:01.628Z,0.80
2023-01-04T14:22:42.240Z,1.00
2023-01-04T14:25:49.235Z,1.10
2023-01-04T14:28:49.563Z,1.20
2023-01-04T14:31:31.947Z,0.90
2023-01-04T14:34:13.732Z,0.67
2023-01-04T14:36:44.375Z,0.93
2023-01-04T14:39:30.914Z,0.97
2023-01-04T14:42:00.345Z,1.00
2023-01-04T14:44:32.053Z,1.03
2023-01-04T14:47:04.069Z,0.90
2023-01-04T14:49:34.414Z,1.33
2023-01-04T14:52:05.369Z,0.90
2023-01-04T14:54:35.350Z,1.10
2023-01-04T14:57:05.188Z,1.00
2023-01-04T14:59:33.898Z,0.90
2023-01-04T15:02:02.626Z,1.07
2023-01-04T15:04:31.865Z,1.00
2023-01-04T15:07:02.393Z,0.60
2023-01-04T15:09:32.059Z,1.87
2023-01-04T15:12:00.491Z,0.87
2023-01-04T15:14:29.505Z,1.60
2023-01-04T15:16:58.127Z,2.60
2023-01-04T15:19:26.693Z,1.03
2023-01-04T15:21:55.296Z,2.37
2023-01-04T15:24:25.458Z,1.27
2023-01-04T15:26:54.192Z,1.63
2023-01-04T15:29:23.190Z,1.50
2023-01-04T15:31:51.658Z,1.50
2023-01-04T15:34:23.048Z,1.40
2023-01-04T15:36:53.580Z,1.70
2023-01-04T15:39:22.639Z,2.40
2023-01-04T15:42:13.468Z,2.57
2023-01-04T15:44:42.107Z,2.37
2023-01-04T15:47:10.818Z,2.50
2023-01-04T15:49:39.434Z,2.43
2023-01-04T15:52:07.916Z,2.23
2023-01-04T15:54:36.675Z,2.00
2023-01-04T15:57:06.890Z,2.00
2023-01-04T15:59:35.456Z,2.63
2023-01-04T16:02:04.351Z,2.03
2023-01-04T16:04:33.621Z,1.60
2023-01-04T16:07:02.046Z,2.37
2023-01-04T16:09:30.845Z,1.97
2023-01-04T16:12:17.257Z,1.80
2023-01-04T16:14:47.487Z,1.70
2023-01-04T16:17:16.150Z,1.90
2023-01-04T16:19:45.087Z,1.80
2023-01-04T16:22:13.653Z,1.53
2023-01-04T16:25:09.405Z,1.90
2023-01-04T16:27:35.448Z,2.50
2023-01-04T16:30:07.346Z,3.33
2023-01-04T16:32:36.288Z,1.70
2023-01-04T16:35:06.259Z,1.10
2023-01-04T16:37:34.744Z,1.20
2023-01-04T16:40:07.633Z,0.97
2023-01-04T16:42:37.900Z,1.03
2023-01-04T16:45:09.858Z,1.10
2023-01-04T16:47:41.491Z,1.30
2023-01-04T16:50:11.282Z,1.27
2023-01-04T16:52:39.994Z,1.07
2023-01-04T16:55:09.728Z,1.17
2023-01-04T16:57:38.287Z,1.20
2023-01-04T17:00:09.609Z,1.40
2023-01-04T17:02:38.145Z,1.70
2023-01-04T17:05:07.652Z,1.70
2023-01-04T17:07:36.160Z,1.80
2023-01-04T17:10:05.897Z,2.93
2023-01-04T17:12:49.742Z,3.23
2023-01-04T17:18:12.551Z,3.27
2023-01-04T17:20:41.591Z,3.03
2023-01-04T17:23:10.309Z,2.90
2023-01-04T17:25:38.812Z,3.53
2023-01-04T17:28:07.235Z,3.43
2023-01-04T17:30:39.378Z,3.60
2023-01-04T17:33:07.979Z,3.27
2023-01-04T17:35:38.127Z,4.10
2023-01-04T17:38:08.058Z,3.83
2023-01-04T17:40:36.733Z,3.23
2023-01-04T17:43:05.665Z,3.80
2023-01-04T17:45:34.567Z,3.80
2023-01-04T17:48:08.317Z,3.77
2023-01-04T17:50:36.842Z,4.10
2023-01-04T17:53:05.415Z,3.80
2023-01-04T17:55:35.612Z,4.20
2023-01-04T17:58:07.837Z,5.23
2023-01-04T18:03:10.014Z,4.27
2023-01-04T18:05:51.230Z,4.50
2023-01-04T18:08:20.734Z,4.53
2023-01-04T18:11:06.860Z,4.30
2023-01-04T18:13:37.240Z,5.43
2023-01-04T18:16:24.014Z,4.60
2023-01-04T18:18:55.944Z,4.97
2023-01-04T18:21:28.821Z,4.93
2023-01-04T18:24:34.966Z,6.17
2023-01-04T18:27:19.938Z,4.70
2023-01-04T18:29:36.332Z,5.10
2023-01-04T18:32:05.083Z,6.27
2023-01-04T18:34:35.237Z,5.63
2023-01-04T18:37:03.706Z,7.07
2023-01-04T18:39:32.365Z,6.27
2023-01-04T18:42:00.780Z,4.77
2023-01-04T18:44:34.542Z,5.73
2023-01-04T18:47:05.019Z,6.43
2023-01-04T18:49:34.842Z,5.70
2023-01-04T18:52:03.431Z,6.43
2023-01-04T18:54:31.959Z,6.10
2023-01-04T18:57:01.444Z,6.00
2023-01-04T18:59:30.484Z,6.37
2023-01-04T19:02:02.035Z,5.50
2023-01-04T19:04:33.400Z,7.23
2023-01-04T19:07:04.088Z,7.03
2023-01-04T19:09:32.686Z,7.77
2023-01-04T19:12:01.375Z,6.13
2023-01-04T19:14:29.879Z,6.23
2023-01-04T19:16:58.399Z,7.27
2023-01-04T19:19:27.117Z,6.87
2023-01-04T19:21:55.652Z,6.93
2023-01-04T19:24:26.129Z,6.03
2023-01-04T19:26:55.390Z,7.03
2023-01-04T19:29:23.895Z,6.73
2023-01-04T19:31:52.485Z,7.27
2023-01-04T19:34:21.060Z,6.93
2023-01-04T19:36:49.836Z,6.10
2023-01-04T19:39:18.362Z,6.33
2023-01-04T19:41:48.248Z,6.73
2023-01-04T19:44:17.095Z,6.30
2023-01-04T19:46:46.371Z,6.63
2023-01-04T19:49:15.728Z,7.27
2023-01-04T19:51:46.541Z,6.07
2023-01-04T19:54:18.708Z,6.60
2023-01-04T19:56:53.307Z,8.57
2023-01-04T19:59:23.192Z,7.10
2023-01-04T20:01:52.029Z,5.87
2023-01-04T20:04:20.968Z,6.50
2023-01-04T20:06:52.304Z,7.43
2023-01-04T20:09:25.886Z,6.27
2023-01-04T20:11:56.039Z,7.07
2023-01-04T20:14:25.033Z,6.50
2023-01-04T20:16:53.982Z,7.10
2023-01-04T20:19:24.363Z,6.60
2023-01-04T20:21:52.883Z,6.33
2023-01-04T20:24:21.618Z,6.77
2023-01-04T20:26:51.178Z,5.47
2023-01-04T20:29:21.896Z,6.20
2023-01-04T20:31:51.428Z,6.80
2023-01-04T20:34:20.458Z,7.13
2023-01-04T20:36:49.258Z,5.53
2023-01-04T20:39:18.173Z,6.40
2023-01-04T20:42:00.749Z,5.87
2023-01-04T20:44:31.244Z,7.13
2023-01-04T20:46:59.937Z,7.70
2023-01-04T20:49:28.666Z,7.47
2023-01-04T20:51:57.448Z,7.30
2023-01-04T20:54:26.149Z,6.73
2023-01-04T20:56:57.741Z,7.17
2023-01-04T20:59:26.378Z,6.03
2023-01-04T21:01:56.688Z,6.23
2023-01-04T21:04:25.995Z,6.40
2023-01-04T21:06:54.724Z,7.27
2023-01-04T21:09:23.629Z,6.07
2023-01-04T21:11:52.263Z,6.07
2023-01-04T21:14:20.896Z,6.83
2023-01-04T21:16:49.460Z,5.77
2023-01-04T21:19:19.684Z,6.63
2023-01-04T21:21:48.430Z,6.97
2023-01-04T21:24:17.364Z,7.50
2023-01-04T21:26:46.059Z,7.33
2023-01-04T21:29:14.739Z,6.87
2023-01-04T21:31:43.466Z,5.83
2023-01-04T21:34:15.150Z,7.67
2023-01-04T21:36:47.209Z,6.43
2023-01-04T21:39:16.184Z,6.07
2023-01-04T21:41:48.008Z,7.07
2023-01-04T21:44:17.273Z,7.60
2023-01-04T21:46:46.028Z,7.57
2023-01-04T21:49:15.212Z,6.47
2023-01-04T21:51:44.024Z,7.13
2023-01-04T21:54:14.046Z,7.03
2023-01-04T21:56:42.897Z,6.53
2023-01-04T21:59:11.485Z,6.87
2023-01-04T22:01:40.223Z,6.30
2023-01-04T22:04:09.036Z,7.53
2023-01-04T22:06:40.491Z,7.30
2023-01-04T22:09:09.231Z,7.67
2023-01-04T22:11:41.016Z,5.77
2023-01-04T22:14:09.632Z,6.17
2023-01-04T22:16:38.352Z,7.37
2023-01-04T22:19:07.331Z,6.70
2023-01-04T22:21:36.323Z,6.20
2023-01-04T22:24:05.403Z,6.27
2023-01-04T22:26:34.474Z,7.17
2023-01-04T22:29:04.446Z,6.80
2023-01-04T22:31:33.135Z,5.87
2023-01-04T22:34:01.867Z,6.27
2023-01-04T22:36:30.823Z,7.43
2023-01-04T22:39:02.492Z,6.10
2023-01-04T22:41:31.294Z,6.83
2023-01-04T22:44:01.506Z,6.70
2023-01-04T22:46:32.449Z,7.17
2023-01-04T22:49:01.908Z,6.33
2023-01-04T22:51:31.777Z,6.43
2023-01-04T22:54:03.169Z,6.33
2023-01-04T22:56:31.720Z,6.20
2023-01-04T22:59:00.337Z,7.40
2023-01-04T23:01:32.988Z,6.53
2023-01-04T23:04:03.312Z,6.93
2023-01-04T23:06:33.187Z,6.83
2023-01-04T23:09:03.178Z,6.77
2023-01-04T23:11:33.575Z,6.97
2023-01-04T23:14:04.371Z,7.27
2023-01-04T23:16:34.428Z,7.17
2023-01-04T23:19:03.574Z,7.50
2023-01-04T23:21:33.055Z,6.83
2023-01-04T23:24:03.222Z,7.17
2023-01-04T23:26:34.438Z,6.70
2023-01-04T23:29:03.137Z,7.10
2023-01-04T23:31:34.900Z,6.30
2023-01-04T23:34:05.758Z,6.17
2023-01-04T23:36:36.004Z,6.57
2023-01-04T23:39:07.732Z,6.93
2023-01-04T23:41:48.400Z,5.93
2023-01-04T23:44:19.362Z,8.10
2023-01-04T23:46:53.246Z,6.47
2023-01-04T23:49:23.990Z,5.83
2023-01-04T23:51:53.731Z,6.13
2023-01-04T23:54:23.181Z,5.93
2023-01-04T23:56:51.616Z,6.03
2023-01-04T23:59:20.425Z,6.73
